Spanish Town, Jamaica
Current Conditions -  °F | °C
As of 11:00 AM on Friday 19 Dec 2014 (Local Time) from MKJP Reporting Station
Few Clouds Few Clouds  
Wind Chill: 82°   Ceiling: Unl
Heat Index: 86°   Visibility: 6mi
Dew Point: 70°   Wind: 6mph
Humidity: 66%   Direction: 200°SSW
Pressure: 29.97"   Gusts: NA
Location:  18°N, 76.95°W
Report Text: MKJP 191600Z 20005KT 9999 FEW022 28/21 Q1015
Loading
Personal Weather Stations






























Interactive Weather Map New forecast layout! Learn more

10-Day Weather Forecast

Advertisements
Track Severe Weather on mobile